Data for 05/16/2010

Time Sea-Level Adjusted Pressure Absolute Pressure Temperature Relative Humidity Dew Point   
(mb) (inHg) (mb) (inHg) (C) (F) (%) (C) (F)
00:05 1021 30.15 850 25.1 9.3 48.7 59 1.7 35.1
00:10 1021 30.15 850 25.1 9.2 48.6 58 1.5 34.8
00:15 1021 30.15 850 25.1 9 48.3 59 1.6 34.8
00:20 1021 30.15 850 25.1 8.8 47.8 60 1.5 34.6
00:25 1021 30.15 850 25.1 8.5 47.3 60 1.2 34.1
00:30 1021 30.15 850 25.1 8.4 47.2 61 1.3 34.4
00:35 1021 30.15 850 25.1 8.4 47.2 59 1 33.7
00:40 1021 30.15 850 25.1 8.5 47.2 61 1.3 34.3
00:45 1021 30.15 850 25.1 8.1 46.6 61 1.2 34.1
00:50 1021 30.15 850 25.1 8.1 46.6 62 1.3 34.3
00:55 1021 30.15 850 25.1 7.9 46.1 63 1.3 34.3
01:00 1021 30.15 850 25.1 7.8 46.1 62 1.1 34
01:05 1021 30.15 850 25.1 8.2 46.7 61 1.1 34
01:10 1021 30.15 850 25.1 8.1 46.6 62 1.2 34.2
01:15 1021 30.15 850 25.1 7.8 46 62 0.9 33.6
01:20 1021 30.15 850 25.1 7.7 45.9 62 0.9 33.7
01:25 1021 30.15 850 25.1 7.9 46.2 61 0.8 33.5
01:30 1021 30.15 850 25.1 8.1 46.6 60 0.8 33.4
01:35 1021 30.15 850 25.1 8.3 46.9 59 0.8 33.5
01:40 1021 30.15 850 25.1 8.2 46.7 60 0.9 33.6
01:45 1021 30.15 850 25.1 8 46.3 60 0.7 33.3
01:50 1021 30.15 850 25.1 7.9 46.2 61 0.8 33.4
01:55 1021 30.15 850 25.1 7.7 45.9 61 0.7 33.3
02:00 1021 30.15 850 25.1 7.7 45.8 61 0.6 33.1
02:05 1021 30.15 850 25.1 7.6 45.6 61 0.5 32.8
02:10 1021 30.15 850 25.1 7.6 45.7 60 0.3 32.6
02:15 1021 30.15 850 25.1 7.9 46.2 58 0.1 32.2
02:20 1021 30.15 850 25.1 8 46.5 58 0.3 32.6
02:25 1021 30.15 850 25.1 7.8 46.1 59 0.3 32.6
02:30 1021 30.15 850 25.1 7.8 46 59 0.3 32.5
02:35 1021 30.15 850 25.1 7.7 45.9 59 0.2 32.3
02:40 1021 30.15 850 25.1 7.5 45.4 60 0.3 32.6
02:45 1021 30.15 850 25.1 7.3 45.2 61 0.4 32.7
02:50 1021 30.15 850 25.1 7.1 44.9 62 0.3 32.5
02:55 1021 30.15 850 25.1 6.9 44.5 62 0.2 32.4
03:00 1021 30.15 850 25.1 6.9 44.3 63 0.3 32.5
03:05 1021 30.15 850 25.1 6.9 44.3 62 0.2 32.3
03:10 1021 30.15 850 25.1 6.9 44.4 62 0.1 32.2
03:15 1021 30.15 850 25.1 6.9 44.5 62 0.1 32.3
03:20 1021 30.15 850 25.1 7 44.5 62 0.3 32.5
03:25 1021 30.15 850 25.1 6.9 44.4 63 0.4 32.7
03:30 1021 30.15 850 25.1 6.9 44.4 63 0.3 32.5
03:35 1021 30.15 850 25.1 6.9 44.5 62 0.3 32.5
03:40 1021 30.15 850 25.1 6.9 44.4 62 0.2 32.4
03:45 1021 30.15 850 25.1 7.1 44.7 61 0.1 32.1
03:50 1021 30.15 850 25.1 7 44.5 62 0.1 32.3
03:55 1021 30.15 850 25.1 6.7 44.1 63 0.1 32.2
04:00 1021 30.15 850 25.1 6.8 44.2 61 -0.2 31.6
04:05 1021 30.15 850 25.1 7 44.6 61 0.1 32.2
04:10 1021 30.15 850 25.1 6.9 44.5 61 -0.1 31.9
04:15 1021 30.15 850 25.1 7 44.7 60 -0.1 31.9
04:20 1021 30.15 850 25.1 7.2 45 60 -0.1 31.8
04:25 1021 30.15 850 25.1 7.1 44.8 60 -0.2 31.6
04:30 1021 30.15 850 25.1 6.9 44.5 60 -0.2 31.7
04:35 1021 30.15 850 25.1 6.9 44.3 61 -0.2 31.6
04:40 1021 30.15 850 25.1 6.8 44.3 61 -0.1 31.9
04:45 1021 30.15 850 25.1 6.6 43.9 62 -0.1 31.8
04:50 1021 30.15 850 25.1 6.5 43.6 63 -0.1 31.8
04:55 1021 30.15 850 25.1 6.5 43.6 62 -0.3 31.5
05:00 1021 30.15 850 25.1 6.6 43.8 62 -0.2 31.6
05:05 1021 30.15 850 25.1 6.5 43.7 62 -0.2 31.6
05:10 1021 30.15 850 25.1 6.3 43.4 62 -0.3 31.4
05:15 1021 30.15 850 25.1 6.3 43.4 60 -0.8 30.6
05:20 1021 30.15 850 25.1 6.6 43.9 60 -0.6 30.9
05:25 1021 30.15 850 25.1 6.4 43.5 62 -0.4 31.3
05:30 1021 30.15 850 25.1 6.1 42.9 62 -0.6 31
05:35 1021 30.15 850 25.1 6.4 43.4 61 -0.5 31
05:40 1021 30.15 850 25.1 6.3 43.4 62 -0.4 31.3
05:45 1021 30.15 850 25.1 6.1 43 63 -0.5 31.1
05:50 1021 30.15 850 25.1 6.1 43 63 -0.5 31.1
05:55 1021 30.15 850 25.1 5.9 42.6 64 -0.4 31.3
06:00 1021 30.15 850 25.1 5.7 42.2 65 -0.4 31.2
06:05 1021 30.15 850 25.1 5.6 42.2 64 -0.7 30.7
06:10 1021 30.15 850 25.1 5.9 42.6 63 -0.7 30.8
06:15 1021 30.15 850 25.1 6 42.9 62 -0.6 31
06:20 1021 30.15 850 25.1 6.3 43.4 61 -0.7 30.7
06:25 1021 30.15 850 25.1 6.9 44.4 58 -0.8 30.5
06:30 1021 30.15 850 25.1 7.2 44.9 58 -0.6 31
06:35 1021 30.15 850 25.1 7 44.5 59 -0.4 31.3
06:40 1021 30.15 850 25.1 6.9 44.4 60 -0.3 31.5
06:45 1021 30.15 850 25.1 6.9 44.4 60 -0.3 31.4
06:50 1021 30.15 850 25.1 6.6 43.9 61 -0.3 31.4
06:55 1021 30.15 850 25.1 6.6 43.8 61 -0.3 31.4
07:00 1021 30.15 850 25.1 6.7 44.1 61 -0.2 31.7
07:05 1021 30.15 850 25.1 6.9 44.4 61 -0.2 31.6
07:10 1021 30.15 850 25.1 7.2 44.9 59 -0.2 31.7
07:15 1021 30.15 850 25.1 7.3 45.1 61 0.2 32.4
07:20 1021 30.15 850 25.1 7.4 45.3 61 0.3 32.6
07:25 1021 30.15 850 25.1 7.8 46 59 0.4 32.7
07:30 1021 30.15 850 25.1 8.2 46.7 59 0.6 33.1
07:35 1021 30.15 850 25.1 8.5 47.3 58 0.8 33.4
07:40 1021 30.15 850 25.1 8.9 47.9 57 0.8 33.5
07:45 1021 30.15 850 25.1 9.1 48.3 56 0.9 33.6
07:50 1021 30.15 850 25.1 9.4 48.9 55 0.9 33.7
07:55 1021 30.15 850 25.1 10.2 50.3 53 1.1 34
08:00 1021 30.15 850 25.1 10.7 51.3 50 0.9 33.6
08:05 1021 30.15 850 25.1 11 51.8 50 1.1 33.9
08:10 1021 30.15 850 25.1 11.6 52.9 49 1.2 34.1
08:15 1021 30.15 850 25.1 11.5 52.7 47 0.7 33.2
08:20 1021 30.15 850 25.1 12.2 54 45 0.7 33.3
08:25 1021 30.15 850 25.1 12.6 54.6 45 1.1 33.9
08:30 1021 30.15 850 25.1 12.8 55 44 0.8 33.5
08:35 1021 30.15 850 25.1 13.2 55.7 44 1.3 34.3
08:40 1021 30.15 850 25.1 13.5 56.2 44 1.5 34.6
08:45 1021 30.15 850 25.1 13.6 56.4 44 1.6 34.9
08:50 1021 30.15 850 25.1 13.1 55.6 44 1.2 34.2
08:55 1021 30.15 850 25.1 13.6 56.5 41 0.6 33.1
09:00 1021 30.15 850 25.1 14 57.2 42 1.2 34.2
09:05 1021 30.15 850 25.1 13.4 56.2 43 1.2 34.1
09:10 1021 30.15 850 25.1 14 57.2 41 1 33.8
09:15 1021 30.15 850 25.1 13.7 56.6 43 1.3 34.4
09:20 1021 30.15 850 25.1 13.7 56.6 41 0.8 33.4
09:25 1021 30.15 850 25.1 13.6 56.5 42 1.2 34.1
09:30 1021 30.15 850 25.1 14.3 57.7 41 1.2 34.1
09:35 1020 30.12 850 25.1 15.4 59.7 37 0.9 33.7
09:40 1020 30.12 850 25.1 16.1 60.9 38 1.8 35.3
09:45 1020 30.12 850 25.1 16 60.8 37 1.4 34.6
09:50 1020 30.12 850 25.1 15.8 60.4 36 0.7 33.3
09:55 1020 30.12 850 25.1 16 60.7 37 1.5 34.8
10:00 1020 30.12 850 25.1 15.5 59.8 39 1.8 35.2
10:05 1020 30.12 850 25.1 16.3 61.3 35 0.8 33.4
10:10 1020 30.12 850 25.1 16.9 62.4 35 1.3 34.4
10:15 1020 30.12 850 25.1 17.3 63.1 32 0.7 33.3
10:20 1020 30.12 849 25.07 17.6 63.6 33 1.3 34.3
10:25 1020 30.12 849 25.07 17.2 63 33 1 33.9
10:30 1020 30.12 849 25.07 17.8 64 33 1.4 34.6
10:35 1020 30.12 849 25.07 17.4 63.2 32 0.8 33.4
10:40 1020 30.12 849 25.07 17.1 62.7 34 1.2 34.2
10:45 1020 30.12 849 25.07 17.8 64 32 1 33.8
10:50 1020 30.12 849 25.07 18.1 64.6 32 1.3 34.3
10:55 1020 30.12 849 25.07 18.5 65.4 32 1.6 34.9
11:00 1020 30.12 849 25.07 19.1 66.3 30 1.2 34.2
11:05 1020 30.12 849 25.07 18.9 66 31 1.4 34.5
11:10 1020 30.12 849 25.07 19.1 66.3 30 1.1 34
11:15 1020 30.12 849 25.07 18.9 66.1 31 1.4 34.5
11:20 1020 30.12 849 25.07 19 66.2 29 0.7 33.2
11:25 1020 30.12 849 25.07 18.6 65.4 28 0 32
11:30 1020 30.12 849 25.07 19.3 66.7 28 0.5 32.8
11:35 1020 30.12 849 25.07 19.6 67.3 27 0.3 32.5
11:40 1020 30.12 849 25.07 19.8 67.7 27 0.4 32.7
11:45 1020 30.12 849 25.07 18.7 65.7 28 -0 32
11:50 1020 30.12 849 25.07 18.8 65.8 27 -0.4 31.3
11:55 1020 30.12 849 25.07 19.2 66.5 26 -0.5 31.1
12:00 1020 30.12 849 25.07 20.1 68.1 24 -0.9 30.4
12:05 1019 30.09 849 25.07 20.3 68.6 23 -1.4 29.4
12:10 1019 30.09 849 25.07 19.3 66.8 24 -1.5 29.3
12:15 1019 30.09 849 25.07 20.5 68.9 23 -1.4 29.5
12:20 1019 30.09 849 25.07 21.5 70.6 20 -2.6 27.4
12:25 1019 30.09 848 25.04 21.2 70.1 22 -1.1 30
12:30 1019 30.09 848 25.04 20.5 69 21 -2.1 28.2
12:35 1019 30.09 848 25.04 20.5 68.8 22 -1.5 29.3
12:40 1019 30.09 848 25.04 19.4 66.9 24 -1.5 29.3
12:45 1019 30.09 848 25.04 20.1 68.2 23 -1.7 29
12:50 1019 30.09 848 25.04 21.1 70 20 -2.5 27.5
12:55 1019 30.09 848 25.04 20.5 68.9 21 -2.7 27.1
13:00 1019 30.09 848 25.04 21.6 70.9 22 -1.1 30
13:05 1019 30.09 848 25.04 21.9 71.5 20 -1.8 28.8
13:10 1019 30.09 848 25.04 21.3 70.3 20 -2.3 27.9
13:15 1019 30.09 848 25.04 21 69.7 21 -1.9 28.5
13:20 1019 30.09 848 25.04 20.5 68.8 21 -2.4 27.6
13:25 1019 30.09 848 25.04 21.3 70.3 20 -2.6 27.4
13:30 1019 30.09 848 25.04 22.1 71.7 18 -3.4 25.9
13:35 1019 30.09 848 25.04 22.3 72.1 19 -2.4 27.7
13:40 1019 30.09 848 25.04 21.9 71.5 19 -2.4 27.7
13:45 1018 30.06 848 25.04 21.2 70.2 19 -3.1 26.4
13:50 1018 30.06 848 25.04 21.9 71.4 19 -2.4 27.6
13:55 1018 30.06 848 25.04 22.8 73 18 -2.8 26.9
14:00 1018 30.06 848 25.04 23 73.4 18 -2 28.3
14:05 1018 30.06 847 25.01 22.6 72.7 18 -2.6 27.3
14:10 1018 30.06 848 25.04 21.9 71.5 19 -2.8 27
14:15 1018 30.06 847 25.01 22.2 72 19 -2.6 27.3
14:20 1018 30.06 847 25.01 22.8 73 17 -3 26.6
14:25 1018 30.06 847 25.01 23.1 73.5 17 -3.2 26.2
14:30 1018 30.06 847 25.01 22.9 73.2 17 -3.4 25.9
14:35 1018 30.06 847 25.01 22.5 72.5 17 -3.4 26
14:40 1018 30.06 847 25.01 21.8 71.3 18 -3.4 25.9
14:45 1018 30.06 847 25.01 21.7 71 17 -4.1 24.6
14:50 1018 30.06 847 25.01 22.5 72.5 17 -3.7 25.4
14:55 1018 30.06 847 25.01 22.7 72.9 19 -2.1 28.1
15:00 1018 30.06 847 25.01 23.1 73.5 16 -4.1 24.7
15:05 1018 30.06 847 25.01 23 73.5 16 -4.3 24.2
15:10 1018 30.06 847 25.01 23.2 73.8 15 -4.6 23.8
15:15 1018 30.06 847 25.01 23.3 73.9 16 -4.1 24.7
15:20 1018 30.06 847 25.01 23.6 74.5 16 -3.8 25.2
15:25 1018 30.06 847 25.01 23.4 74.1 16 -3.8 25.1
15:30 1018 30.06 847 25.01 22.8 73 17 -3.2 26.3
15:35 1018 30.06 847 25.01 23.4 74.2 15 -4.2 24.5
15:40 1018 30.06 847 25.01 23.6 74.5 16 -3.7 25.3
15:45 1018 30.06 847 25.01 23.6 74.4 17 -2.8 26.9
15:50 1018 30.06 847 25.01 22.1 71.8 19 -2.5 27.5
15:55 1018 30.06 847 25.01 22.4 72.3 16 -4.1 24.6
16:00 1018 30.06 847 25.01 22.2 72 17 -3.7 25.4
16:05 1018 30.06 847 25.01 22.4 72.2 17 -3.5 25.8
16:10 1017 30.03 847 25.01 23.4 74.1 15 -4.6 23.7
16:15 1017 30.03 847 25.01 22.6 72.7 18 -2.8 26.9
16:20 1017 30.03 847 25.01 21.9 71.4 18 -3.5 25.8
16:25 1017 30.03 847 25.01 21.9 71.4 19 -2.6 27.4
16:30 1017 30.03 847 25.01 21.9 71.4 19 -2.6 27.4
16:35 1017 30.03 847 25.01 22.7 72.9 16 -4.6 23.7
16:40 1017 30.03 847 25.01 23.2 73.7 17 -2.9 26.8
16:45 1017 30.03 846 24.98 23.2 73.7 17 -3.2 26.3
16:50 1017 30.03 846 24.98 23.4 74.2 16 -3.3 26.1
16:55 1017 30.03 846 24.98 22.5 72.6 18 -3.1 26.5
17:00 1017 30.03 846 24.98 22 71.6 18 -3 26.6
17:05 1017 30.03 846 24.98 21.8 71.2 18 -3.1 26.4
17:10 1017 30.03 846 24.98 21.8 71.3 18 -3.3 26.1
17:15 1017 30.03 846 24.98 23.4 74.1 16 -3.9 25
17:20 1017 30.03 846 24.98 23.5 74.3 17 -2.7 27.1
17:25 1017 30.03 846 24.98 23.7 74.6 16 -3.4 25.8
17:30 1017 30.03 846 24.98 23.6 74.5 16 -3.7 25.3
17:35 1017 30.03 846 24.98 23.3 74 16 -3.4 25.9
17:40 1017 30.03 846 24.98 23.4 74.1 17 -2.8 27
17:45 1017 30.03 846 24.98 23.2 73.7 17 -2.9 26.9
17:50 1017 30.03 846 24.98 22.7 72.9 17 -3.1 26.5
17:55 1017 30.03 846 24.98 22.3 72.1 17 -3.5 25.7
18:00 1017 30.03 846 24.98 22.8 73 16 -4.5 24
18:05 1017 30.03 846 24.98 22.7 72.8 17 -3.1 26.4
18:10 1017 30.03 846 24.98 22.2 71.9 18 -3.3 26
18:15 1017 30.03 846 24.98 22.2 71.9 19 -2.7 27.1
18:20 1017 30.03 846 24.98 22.5 72.6 18 -3.1 26.4
18:25 1017 30.03 846 24.98 22.5 72.4 18 -3.1 26.4
18:30 1017 30.03 846 24.98 22 71.5 18 -3.5 25.8
18:35 1017 30.03 846 24.98 21.7 71.1 18 -3.4 25.9
18:40 1017 30.03 846 24.98 21.6 71 18 -3.3 26
18:45 1017 30.03 846 24.98 21.4 70.6 18 -3.3 26
18:50 1017 30.03 846 24.98 21.1 70 20 -2.9 26.8
18:55 1017 30.03 846 24.98 21.2 70.2 19 -2.9 26.8
19:00 1017 30.03 846 24.98 21.4 70.5 19 -2.9 26.8
19:05 1017 30.03 846 24.98 21.3 70.4 19 -3.3 26.1
19:10 1017 30.03 846 24.98 21.3 70.4 20 -2.6 27.3
19:15 1017 30.03 846 24.98 21.4 70.5 20 -2.6 27.3
19:20 1017 30.03 846 24.98 21.4 70.5 19 -3 26.6
19:25 1017 30.03 846 24.98 21.3 70.3 20 -2.7 27.1
19:30 1017 30.03 846 24.98 21.2 70.2 20 -2.5 27.5
19:35 1017 30.03 846 24.98 21.1 69.9 21 -2.1 28.1
19:40 1017 30.03 846 24.98 20.9 69.7 21 -2.2 28
19:45 1017 30.03 846 24.98 20.8 69.5 21 -2.4 27.7
19:50 1017 30.03 846 24.98 20.8 69.4 21 -2.2 28
19:55 1017 30.03 846 24.98 20.8 69.4 21 -2.4 27.6
20:00 1017 30.03 846 24.98 20.6 69.1 21 -2.4 27.7
20:05 1017 30.03 846 24.98 20.3 68.6 22 -1.7 28.9
20:10 1017 30.03 846 24.98 20 68.1 23 -1.8 28.7
20:15 1017 30.03 846 24.98 19.8 67.7 24 -1.4 29.4
20:20 1017 30.03 846 24.98 19.6 67.3 23 -1.7 29
20:25 1017 30.03 846 24.98 19.3 66.8 24 -1.6 29.1
20:30 1017 30.03 846 24.98 19 66.1 27 -0.1 31.8
20:35 1017 30.03 846 24.98 18.5 65.3 27 -0.5 31.1
20:40 1017 30.03 846 24.98 18.1 64.6 30 0.2 32.4
20:45 1017 30.03 846 24.98 17.8 64 33 1.5 34.7
20:50 1017 30.03 846 24.98 17.4 63.4 33 1.1 33.9
20:55 1017 30.03 846 24.98 17.3 63.1 35 1.8 35.3
21:00 1017 30.03 846 24.98 17.3 63.1 32 0.6 33
21:05 1017 30.03 846 24.98 16.9 62.5 33 0.6 33.2
21:10 1017 30.03 846 24.98 16.5 61.8 33 0.5 33
21:15 1017 30.03 846 24.98 16.1 61 36 1.2 34.1
21:20 1017 30.03 846 24.98 15.6 60.1 36 0.8 33.4
21:25 1017 30.03 847 25.01 15.5 60 34 -0 32
21:30 1017 30.03 847 25.01 15.6 60 35 0.3 32.5
21:35 1017 30.03 847 25.01 15.4 59.7 34 -0.1 31.8
21:40 1017 30.03 847 25.01 15.3 59.5 37 0.7 33.2
21:45 1017 30.03 847 25.01 14.9 58.9 37 0.5 32.8
21:50 1018 30.06 847 25.01 14.8 58.7 36 0.1 32.2
21:55 1018 30.06 847 25.01 14.8 58.7 37 0.3 32.5
22:00 1018 30.06 847 25.01 14.5 58.2 38 0.5 33
22:05 1018 30.06 847 25.01 14.2 57.6 39 0.4 32.7
22:10 1018 30.06 847 25.01 14.2 57.5 39 0.6 33.1
22:15 1018 30.06 847 25.01 13.9 57 40 0.6 33.1
22:20 1018 30.06 847 25.01 13.8 56.8 39 0.3 32.5
22:25 1018 30.06 847 25.01 13.7 56.7 40 0.3 32.6
22:30 1018 30.06 847 25.01 13.5 56.3 41 0.6 33.1
22:35 1018 30.06 847 25.01 13.2 55.8 40 0 32
22:40 1018 30.06 847 25.01 13.3 55.9 40 0.2 32.3
22:45 1018 30.06 847 25.01 13.3 56 40 0.1 32.2
22:50 1018 30.06 847 25.01 13.4 56.2 37 -0.8 30.5
22:55 1018 30.06 847 25.01 13.7 56.7 37 -0.5 31.1
23:00 1018 30.06 847 25.01 13.5 56.2 40 0.3 32.6
23:05 1018 30.06 847 25.01 12.9 55.2 42 0.3 32.5
23:10 1018 30.06 847 25.01 12.8 55 40 -0.3 31.5
23:15 1018 30.06 847 25.01 12.8 55 41 -0.1 31.9
23:20 1018 30.06 847 25.01 12.5 54.5 41 -0.2 31.7
23:25 1018 30.06 847 25.01 12.3 54.2 43 0.1 32.1
23:30 1018 30.06 847 25.01 12.2 53.9 44 0.2 32.4
23:35 1018 30.06 847 25.01 12 53.6 44 0.1 32.2
23:40 1018 30.06 847 25.01 11.9 53.3 43 -0.3 31.4
23:45 1018 30.06 847 25.01 12 53.6 43 -0.3 31.5
23:50 1018 30.06 847 25.01 12.1 53.7 42 -0.3 31.4
23:55 1018 30.06 847 25.01 12.1 53.9 42 -0.4 31.2
24:00 1018 30.06 847 25.01 12.1 53.8 42 -0.3 31.5